createdAt,value
2023-02-08T00:00:54.773Z,2.40
2023-02-08T00:03:29.449Z,2.30
2023-02-08T00:06:03.195Z,2.30
2023-02-08T00:08:37.957Z,2.30
2023-02-08T00:11:14.472Z,2.50
2023-02-08T00:13:48.644Z,2.20
2023-02-08T00:16:23.016Z,2.20
2023-02-08T00:18:56.720Z,2.20
2023-02-08T00:21:30.280Z,2.20
2023-02-08T00:24:03.828Z,2.20
2023-02-08T00:26:38.723Z,2.20
2023-02-08T00:29:12.217Z,2.10
2023-02-08T00:31:45.939Z,2.10
2023-02-08T00:34:20.707Z,2.10
2023-02-08T00:36:53.969Z,2.10
2023-02-08T00:39:27.467Z,2.10
2023-02-08T00:42:02.677Z,2.10
2023-02-08T00:44:37.713Z,2.10
2023-02-08T00:47:11.545Z,2.10
2023-02-08T00:49:45.149Z,2.00
2023-02-08T00:52:20.698Z,2.00
2023-02-08T00:54:54.260Z,2.00
2023-02-08T00:57:29.326Z,1.90
2023-02-08T01:00:03.293Z,1.90
2023-02-08T01:02:39.156Z,2.00
2023-02-08T01:05:12.963Z,1.90
2023-02-08T01:07:46.411Z,1.90
2023-02-08T01:10:19.942Z,1.90
2023-02-08T01:12:55.831Z,1.90
2023-02-08T01:15:29.313Z,1.90
2023-02-08T01:18:02.917Z,2.00
2023-02-08T01:20:38.975Z,1.80
2023-02-08T01:23:12.785Z,1.80
2023-02-08T01:25:46.202Z,1.80
2023-02-08T01:28:21.060Z,1.80
2023-02-08T01:30:54.727Z,1.80
2023-02-08T01:33:28.723Z,1.80
2023-02-08T01:36:02.373Z,1.80
2023-02-08T01:38:37.131Z,1.80
2023-02-08T01:41:17.231Z,1.80
2023-02-08T01:44:48.236Z,1.80
2023-02-08T01:47:22.003Z,1.70
2023-02-08T01:49:55.956Z,1.80
2023-02-08T01:52:30.240Z,1.70
2023-02-08T01:55:13.473Z,1.70
2023-02-08T01:57:47.352Z,1.70
2023-02-08T02:00:24.019Z,1.70
2023-02-08T02:03:00.287Z,1.70
2023-02-08T02:05:42.021Z,1.70
2023-02-08T02:08:16.013Z,2.00
2023-02-08T02:10:50.754Z,1.70
2023-02-08T02:13:27.661Z,1.70
2023-02-08T02:16:02.510Z,1.70
2023-02-08T02:18:36.933Z,1.70
2023-02-08T02:21:45.387Z,1.70
2023-02-08T02:25:25.060Z,1.70
2023-02-08T02:28:59.341Z,1.70
2023-02-08T02:32:05.260Z,1.70
2023-02-08T02:34:47.560Z,1.70
2023-02-08T02:37:39.182Z,1.70
2023-02-08T02:40:23.076Z,1.70
2023-02-08T02:43:25.625Z,1.60
2023-02-08T02:46:09.980Z,1.60
2023-02-08T02:48:59.780Z,1.60
2023-02-08T02:51:42.294Z,1.60
2023-02-08T02:54:23.364Z,1.60
2023-02-08T02:57:02.963Z,1.50
2023-02-08T02:59:39.508Z,1.50
2023-02-08T03:02:13.892Z,1.50
2023-02-08T03:04:57.409Z,1.50
2023-02-08T03:08:02.909Z,1.50
2023-02-08T03:11:06.397Z,1.50
2023-02-08T03:14:05.240Z,1.40
2023-02-08T03:17:01.925Z,1.40
2023-02-08T03:19:43.010Z,1.40
2023-02-08T03:22:27.927Z,1.50
2023-02-08T03:25:10.357Z,1.40
2023-02-08T03:27:57.464Z,1.60
2023-02-08T03:30:45.553Z,1.30
2023-02-08T03:33:25.974Z,1.40
2023-02-08T03:36:07.146Z,1.50
2023-02-08T03:38:47.035Z,1.30
2023-02-08T03:41:34.943Z,1.30
2023-02-08T03:44:14.990Z,1.20
2023-02-08T03:46:56.543Z,1.20
2023-02-08T03:49:37.065Z,1.50
2023-02-08T03:52:12.718Z,1.20
2023-02-08T03:54:53.145Z,1.10
2023-02-08T03:57:31.743Z,1.20
2023-02-08T04:00:11.148Z,1.10
2023-02-08T04:02:55.650Z,1.10
2023-02-08T04:05:29.742Z,1.10
2023-02-08T04:08:03.333Z,1.10
2023-02-08T04:10:38.591Z,1.10
2023-02-08T04:13:12.103Z,1.10
2023-02-08T04:15:45.801Z,1.10
2023-02-08T04:18:19.416Z,1.10
2023-02-08T04:20:52.873Z,1.10
2023-02-08T04:23:26.130Z,1.10
2023-02-08T04:26:01.133Z,1.10
2023-02-08T04:28:34.527Z,1.10
2023-02-08T04:31:08.730Z,1.10
2023-02-08T04:33:42.614Z,1.00
2023-02-08T04:36:16.065Z,1.00
2023-02-08T04:38:49.760Z,1.00
2023-02-08T04:41:25.168Z,1.10
2023-02-08T04:43:58.643Z,1.00
2023-02-08T04:46:32.539Z,1.10
2023-02-08T04:49:07.161Z,1.00
2023-02-08T04:51:40.874Z,1.00
2023-02-08T04:54:14.881Z,1.00
2023-02-08T04:56:50.032Z,1.00
2023-02-08T04:59:23.729Z,1.00
2023-02-08T05:01:57.563Z,1.00
2023-02-08T05:04:33.629Z,1.00
2023-02-08T05:07:07.024Z,1.10
2023-02-08T05:09:40.503Z,0.90
2023-02-08T05:12:15.628Z,1.00
2023-02-08T05:14:49.449Z,0.90
2023-02-08T05:17:23.352Z,0.90
2023-02-08T05:19:57.128Z,0.90
2023-02-08T05:22:30.751Z,0.90
2023-02-08T05:25:04.618Z,0.90
2023-02-08T05:27:39.988Z,0.90
2023-02-08T05:30:14.079Z,0.90
2023-02-08T05:32:48.423Z,0.90
2023-02-08T05:35:22.254Z,0.90
2023-02-08T05:37:55.671Z,0.90
2023-02-08T05:40:29.584Z,0.90
2023-02-08T05:43:04.989Z,0.90
2023-02-08T05:45:38.476Z,0.80
2023-02-08T05:48:11.930Z,0.90
2023-02-08T05:50:45.369Z,0.90
2023-02-08T05:53:18.890Z,0.90
2023-02-08T05:55:52.388Z,0.80
2023-02-08T05:58:28.392Z,0.80
2023-02-08T06:01:02.481Z,0.80
2023-02-08T06:03:36.121Z,0.80
2023-02-08T06:06:11.454Z,0.80
2023-02-08T06:08:45.339Z,0.80
2023-02-08T06:11:19.352Z,0.80
2023-02-08T06:13:54.219Z,0.80
2023-02-08T06:16:29.019Z,0.80
2023-02-08T06:19:02.845Z,0.80
2023-02-08T06:21:36.480Z,0.70
2023-02-08T06:24:11.778Z,1.00
2023-02-08T06:26:45.974Z,0.70
2023-02-08T06:29:21.220Z,0.70
2023-02-08T06:31:55.124Z,0.70
2023-02-08T06:34:29.345Z,0.70
2023-02-08T06:37:05.338Z,0.70
2023-02-08T06:39:39.206Z,0.70
2023-02-08T06:42:13.112Z,0.70
2023-02-08T06:44:55.185Z,0.70
2023-02-08T06:47:30.246Z,0.80
2023-02-08T06:50:03.801Z,0.70
2023-02-08T06:52:37.781Z,0.60
2023-02-08T06:55:11.523Z,0.60
2023-02-08T06:57:44.884Z,0.70
2023-02-08T07:00:20.380Z,0.60
2023-02-08T07:02:54.205Z,0.70
2023-02-08T07:05:27.792Z,0.60
2023-02-08T07:08:01.971Z,0.60
2023-02-08T07:10:50.262Z,0.60
2023-02-08T07:13:23.762Z,0.60
2023-02-08T07:15:58.921Z,0.60
2023-02-08T07:18:32.488Z,0.60
2023-02-08T07:21:06.918Z,0.60
2023-02-08T07:23:41.489Z,0.60
2023-02-08T07:26:16.021Z,0.70
2023-02-08T07:28:49.475Z,0.70
2023-02-08T07:31:24.301Z,0.70
2023-02-08T07:33:57.903Z,0.70
2023-02-08T07:36:31.933Z,0.70
2023-02-08T07:39:06.633Z,0.70
2023-02-08T07:41:40.321Z,0.70
2023-02-08T07:44:14.124Z,0.70
2023-02-08T07:46:49.025Z,0.70
2023-02-08T07:49:23.004Z,0.70
2023-02-08T07:51:56.651Z,0.70
2023-02-08T07:54:31.345Z,0.70
2023-02-08T07:57:05.136Z,0.80
2023-02-08T07:59:38.620Z,0.80
2023-02-08T08:02:16.883Z,0.80
2023-02-08T08:04:50.476Z,0.90
2023-02-08T08:07:24.106Z,0.90
2023-02-08T08:09:57.916Z,0.90
2023-02-08T08:12:31.772Z,1.00
2023-02-08T08:15:06.353Z,1.00
2023-02-08T08:17:42.281Z,1.00
2023-02-08T08:20:15.744Z,1.10
2023-02-08T08:22:49.544Z,1.10
2023-02-08T08:25:23.039Z,1.20
2023-02-08T08:27:56.782Z,1.30
2023-02-08T08:30:30.662Z,1.40
2023-02-08T08:33:07.037Z,1.50
2023-02-08T08:35:40.896Z,1.50
2023-02-08T08:38:14.808Z,1.60
2023-02-08T08:40:48.406Z,1.70
2023-02-08T08:43:21.858Z,1.80
2023-02-08T08:45:55.294Z,1.90
2023-02-08T08:48:30.396Z,2.00
2023-02-08T08:51:04.568Z,2.10
2023-02-08T08:53:38.670Z,2.20
2023-02-08T08:56:12.296Z,2.50
2023-02-08T08:58:45.933Z,2.40
2023-02-08T09:01:19.686Z,2.60
2023-02-08T09:03:54.527Z,2.70
2023-02-08T09:06:28.188Z,2.80
2023-02-08T09:09:01.928Z,2.90
2023-02-08T09:11:36.292Z,3.10
2023-02-08T09:14:10.336Z,3.00
2023-02-08T09:16:47.748Z,3.30
2023-02-08T09:19:22.827Z,3.40
2023-02-08T09:21:58.130Z,3.60
2023-02-08T09:24:31.822Z,3.70
2023-02-08T09:27:05.564Z,4.00
2023-02-08T09:29:38.885Z,3.90
2023-02-08T09:32:12.720Z,4.10
2023-02-08T09:34:48.137Z,4.20
2023-02-08T09:37:21.920Z,4.40
2023-02-08T09:39:57.316Z,4.50
2023-02-08T09:42:43.595Z,4.60
2023-02-08T09:45:54.378Z,4.80
2023-02-08T09:48:39.337Z,4.90
2023-02-08T09:51:29.874Z,5.10
2023-02-08T09:54:10.246Z,4.80
2023-02-08T09:56:47.133Z,5.30
2023-02-08T09:59:27.083Z,5.40
2023-02-08T10:02:12.547Z,5.50
2023-02-08T10:05:02.097Z,5.60
2023-02-08T10:07:38.281Z,5.80
2023-02-08T10:10:20.967Z,5.90
2023-02-08T10:13:07.873Z,6.00
2023-02-08T10:15:48.084Z,6.10
2023-02-08T10:18:45.133Z,6.30
2023-02-08T10:21:36.116Z,6.40
2023-02-08T10:24:40.388Z,6.50
2023-02-08T10:27:18.541Z,6.60
2023-02-08T10:30:20.529Z,6.80
2023-02-08T10:33:02.726Z,6.90
2023-02-08T10:35:41.893Z,7.00
2023-02-08T10:38:44.149Z,7.10
2023-02-08T10:41:29.576Z,7.20
2023-02-08T10:44:16.574Z,7.50
2023-02-08T10:47:01.954Z,7.40
2023-02-08T10:49:46.145Z,7.50
2023-02-08T10:52:20.137Z,7.60
2023-02-08T10:54:54.634Z,7.70
2023-02-08T10:57:36.365Z,7.80
2023-02-08T11:00:26.796Z,7.90
2023-02-08T11:03:13.844Z,8.00
2023-02-08T11:05:47.883Z,8.10
2023-02-08T11:08:24.017Z,8.20
2023-02-08T11:11:01.338Z,8.30
2023-02-08T11:14:11.813Z,8.40
2023-02-08T11:16:52.413Z,8.70
2023-02-08T11:19:36.706Z,8.70
2023-02-08T11:22:19.373Z,8.70
2023-02-08T11:25:00.163Z,8.70
2023-02-08T11:27:37.476Z,8.80
2023-02-08T11:30:24.358Z,8.90
2023-02-08T11:33:23.124Z,9.00
2023-02-08T11:36:04.206Z,9.10
2023-02-08T11:38:43.754Z,9.20
2023-02-08T11:41:21.184Z,9.20
2023-02-08T11:44:05.087Z,9.30
2023-02-08T11:46:42.520Z,9.40
2023-02-08T11:49:25.492Z,9.50
2023-02-08T11:52:01.285Z,9.60
2023-02-08T11:54:41.811Z,9.70
2023-02-08T11:57:20.796Z,9.80
2023-02-08T12:00:21.548Z,9.80
2023-02-08T12:03:02.350Z,9.90
2023-02-08T12:05:48.923Z,10.00
2023-02-08T12:08:35.081Z,10.10
2023-02-08T12:11:23.617Z,10.20
2023-02-08T12:14:17.054Z,10.20
2023-02-08T12:17:34.208Z,10.40
2023-02-08T12:20:38.699Z,10.30
2023-02-08T12:23:54.848Z,10.50
2023-02-08T12:26:57.283Z,10.50
2023-02-08T12:29:48.254Z,10.60
2023-02-08T12:32:47.294Z,10.70
2023-02-08T12:36:10.173Z,10.70
2023-02-08T12:39:26.085Z,10.80
2023-02-08T12:42:29.815Z,10.90
2023-02-08T12:45:56.305Z,11.20
2023-02-08T12:49:03.446Z,11.10
2023-02-08T12:51:52.865Z,11.20
2023-02-08T12:54:37.433Z,11.30
2023-02-08T12:57:15.034Z,11.30
2023-02-08T12:59:52.962Z,11.40
2023-02-08T13:02:32.973Z,11.40
2023-02-08T13:05:13.821Z,11.50
2023-02-08T13:07:56.461Z,11.60
2023-02-08T13:10:36.545Z,11.60
2023-02-08T13:13:21.240Z,11.70
2023-02-08T13:16:02.600Z,11.70
2023-02-08T13:18:44.860Z,11.80
2023-02-08T13:21:25.491Z,11.80
2023-02-08T13:24:02.273Z,11.90
2023-02-08T13:26:39.967Z,11.90
2023-02-08T13:29:21.372Z,12.00
2023-02-08T13:32:04.101Z,11.90
2023-02-08T13:34:45.166Z,11.90
2023-02-08T13:37:27.410Z,11.90
2023-02-08T13:40:20.168Z,12.00
2023-02-08T13:43:01.777Z,11.90
2023-02-08T13:45:40.625Z,11.90
2023-02-08T13:48:18.430Z,11.90
2023-02-08T13:50:54.212Z,11.90
2023-02-08T13:54:11.664Z,11.90
2023-02-08T13:56:49.569Z,11.90
2023-02-08T13:59:37.224Z,11.80
2023-02-08T14:02:30.176Z,11.80
2023-02-08T14:05:46.401Z,11.80
2023-02-08T14:08:29.788Z,11.80
2023-02-08T14:11:15.610Z,11.70
2023-02-08T14:13:59.693Z,11.60
2023-02-08T14:16:36.337Z,11.60
2023-02-08T14:19:27.139Z,11.50
2023-02-08T14:22:04.408Z,11.50
2023-02-08T14:24:43.943Z,11.40
2023-02-08T14:27:27.074Z,11.30
2023-02-08T14:30:07.777Z,11.20
2023-02-08T14:32:46.491Z,11.20
2023-02-08T14:35:25.680Z,11.10
2023-02-08T14:38:48.732Z,11.00
2023-02-08T14:42:03.319Z,11.00
2023-02-08T14:45:06.902Z,10.90
2023-02-08T14:48:21.123Z,10.80
2023-02-08T14:51:18.533Z,10.70
2023-02-08T14:53:57.567Z,10.80
2023-02-08T14:56:37.829Z,10.60
2023-02-08T14:59:17.045Z,10.50
2023-02-08T15:01:55.670Z,10.60
2023-02-08T15:04:31.119Z,10.40
2023-02-08T15:07:33.319Z,10.40
2023-02-08T15:10:14.496Z,10.30
2023-02-08T15:12:53.311Z,10.20
2023-02-08T15:15:34.177Z,10.20
2023-02-08T15:18:20.102Z,10.20
2023-02-08T15:21:06.366Z,10.20
2023-02-08T15:23:39.835Z,10.10
2023-02-08T15:26:24.251Z,10.10
2023-02-08T15:28:59.936Z,10.00
2023-02-08T15:31:35.184Z,10.00
2023-02-08T15:34:13.226Z,9.90
2023-02-08T15:36:52.146Z,9.90
2023-02-08T15:39:35.593Z,9.80
2023-02-08T15:42:18.619Z,9.80
2023-02-08T15:44:52.647Z,9.80
2023-02-08T15:47:33.300Z,9.70
2023-02-08T15:50:18.663Z,9.70
2023-02-08T15:52:59.758Z,9.70
2023-02-08T15:55:40.855Z,9.60
2023-02-08T15:58:28.619Z,9.60
2023-02-08T16:01:05.317Z,9.60
2023-02-08T16:03:39.256Z,9.60
2023-02-08T16:06:14.332Z,9.40
2023-02-08T16:08:53.988Z,9.40
2023-02-08T16:11:32.068Z,9.30
2023-02-08T16:14:07.974Z,9.30
2023-02-08T16:16:45.082Z,9.20
2023-02-08T16:19:26.827Z,9.20
2023-02-08T16:22:27.075Z,9.10
2023-02-08T16:25:25.884Z,9.10
2023-02-08T16:27:59.618Z,9.00
2023-02-08T16:30:38.024Z,8.90
2023-02-08T16:33:14.939Z,8.80
2023-02-08T16:35:49.422Z,8.90
2023-02-08T16:38:25.847Z,8.70
2023-02-08T16:41:12.195Z,8.80
2023-02-08T16:43:47.910Z,8.50
2023-02-08T16:46:27.851Z,8.40
2023-02-08T16:49:01.333Z,8.40
2023-02-08T16:51:36.056Z,8.30
2023-02-08T16:54:15.860Z,8.30
2023-02-08T16:56:55.758Z,8.20
2023-02-08T16:59:29.742Z,8.10
2023-02-08T17:02:03.712Z,8.00
2023-02-08T17:04:37.178Z,8.00
2023-02-08T17:07:18.940Z,7.90
2023-02-08T17:09:54.624Z,7.80
2023-02-08T17:12:28.238Z,8.00
2023-02-08T17:15:02.151Z,7.60
2023-02-08T17:17:35.984Z,7.60
2023-02-08T17:20:22.134Z,7.50
2023-02-08T17:23:01.142Z,7.40
2023-02-08T17:25:37.207Z,7.40
2023-02-08T17:28:18.628Z,7.30
2023-02-08T17:30:53.440Z,7.30
2023-02-08T17:33:29.667Z,7.20
2023-02-08T17:36:03.407Z,7.30
2023-02-08T17:38:39.229Z,7.10
2023-02-08T17:41:18.034Z,7.10
2023-02-08T17:43:53.281Z,7.00
2023-02-08T17:46:30.880Z,6.90
2023-02-08T17:49:04.691Z,6.90
2023-02-08T17:51:38.211Z,6.80
2023-02-08T17:54:12.399Z,6.90
2023-02-08T17:56:47.916Z,6.70
2023-02-08T17:59:22.663Z,6.60
2023-02-08T18:01:56.610Z,6.50
2023-02-08T18:04:32.498Z,6.50
2023-02-08T18:07:06.282Z,6.40
2023-02-08T18:09:40.459Z,6.40
2023-02-08T18:12:16.015Z,6.30
2023-02-08T18:14:49.911Z,6.30
2023-02-08T18:17:24.006Z,6.20
2023-02-08T18:19:57.593Z,6.20
2023-02-08T18:22:30.987Z,6.10
2023-02-08T18:25:05.412Z,6.20
2023-02-08T18:27:40.681Z,6.00
2023-02-08T18:30:15.624Z,6.00
2023-02-08T18:32:49.718Z,5.90
2023-02-08T18:35:23.008Z,5.80
2023-02-08T18:37:56.950Z,5.80
2023-02-08T18:40:32.211Z,6.00
2023-02-08T18:43:07.547Z,5.70
2023-02-08T18:45:40.930Z,5.60
2023-02-08T18:48:15.151Z,5.50
2023-02-08T18:50:56.901Z,5.50
2023-02-08T18:53:33.073Z,5.40
2023-02-08T18:56:09.709Z,5.40
2023-02-08T18:58:45.190Z,5.30
2023-02-08T19:01:26.138Z,5.30
2023-02-08T19:04:00.844Z,5.30
2023-02-08T19:06:38.561Z,5.30
2023-02-08T19:09:12.262Z,5.20
2023-02-08T19:11:46.925Z,5.30
2023-02-08T19:14:22.335Z,5.30
2023-02-08T19:16:56.016Z,5.40
2023-02-08T19:19:29.717Z,5.30
2023-02-08T19:22:03.315Z,5.30
2023-02-08T19:24:37.042Z,5.30
2023-02-08T19:27:10.727Z,5.30
2023-02-08T19:29:46.917Z,5.30
2023-02-08T19:32:20.528Z,5.20
2023-02-08T19:34:54.274Z,5.20
2023-02-08T19:37:27.734Z,5.20
2023-02-08T19:40:01.660Z,5.20
2023-02-08T19:42:35.768Z,5.10
2023-02-08T19:45:13.207Z,5.10
2023-02-08T19:47:51.405Z,5.00
2023-02-08T19:50:25.710Z,5.00
2023-02-08T19:52:59.382Z,5.00
2023-02-08T19:55:32.747Z,5.00
2023-02-08T19:58:06.592Z,4.90
2023-02-08T20:00:41.844Z,4.90
2023-02-08T20:03:21.500Z,4.90
2023-02-08T20:05:57.805Z,4.90
2023-02-08T20:08:31.573Z,4.80
2023-02-08T20:11:05.561Z,4.90
2023-02-08T20:13:39.283Z,4.80
2023-02-08T20:16:14.704Z,4.70
2023-02-08T20:18:49.322Z,4.70
2023-02-08T20:21:23.720Z,4.70
2023-02-08T20:23:57.375Z,4.60
2023-02-08T20:26:31.319Z,4.60
2023-02-08T20:29:06.070Z,4.60
2023-02-08T20:31:44.657Z,4.50
2023-02-08T20:34:19.126Z,4.50
2023-02-08T20:37:06.315Z,4.40
2023-02-08T20:39:41.478Z,4.40
2023-02-08T20:42:15.638Z,4.30
2023-02-08T20:44:49.338Z,4.30
2023-02-08T20:47:24.509Z,4.20
2023-02-08T20:50:01.137Z,4.20
2023-02-08T20:52:35.234Z,4.10
2023-02-08T20:55:09.936Z,4.10
2023-02-08T20:57:43.340Z,4.10
2023-02-08T21:00:17.932Z,4.00
2023-02-08T21:02:53.131Z,4.00
2023-02-08T21:05:27.324Z,3.90
2023-02-08T21:08:00.890Z,3.90
2023-02-08T21:10:37.586Z,3.50
2023-02-08T21:13:11.417Z,4.00
2023-02-08T21:15:46.357Z,3.80
2023-02-08T21:18:21.276Z,3.80
2023-02-08T21:20:55.270Z,3.70
2023-02-08T21:23:29.611Z,3.60
2023-02-08T21:26:05.680Z,3.60
2023-02-08T21:28:39.110Z,3.60
2023-02-08T21:31:16.708Z,3.60
2023-02-08T21:33:53.047Z,3.50
2023-02-08T21:36:26.667Z,3.60
2023-02-08T21:39:00.603Z,3.50
2023-02-08T21:41:35.381Z,3.50
2023-02-08T21:44:10.187Z,3.50
2023-02-08T21:46:43.786Z,3.50
2023-02-08T21:49:37.705Z,3.50
2023-02-08T21:52:29.696Z,3.40
2023-02-08T21:55:03.423Z,3.40
2023-02-08T21:57:40.940Z,3.40
2023-02-08T22:00:15.714Z,3.40
2023-02-08T22:02:49.570Z,3.30
2023-02-08T22:05:24.599Z,3.30
2023-02-08T22:08:00.758Z,3.30
2023-02-08T22:10:34.795Z,3.20
2023-02-08T22:13:08.594Z,3.20
2023-02-08T22:15:42.242Z,3.20
2023-02-08T22:18:15.584Z,3.10
2023-02-08T22:20:53.106Z,3.10
2023-02-08T22:23:26.974Z,3.10
2023-02-08T22:26:00.785Z,3.10
2023-02-08T22:28:34.155Z,3.10
2023-02-08T22:31:08.211Z,3.00
2023-02-08T22:33:42.428Z,3.00
2023-02-08T22:36:17.277Z,3.10
2023-02-08T22:38:50.673Z,3.00
2023-02-08T22:41:24.856Z,3.00
2023-02-08T22:43:58.707Z,3.00
2023-02-08T22:46:32.594Z,2.90
2023-02-08T22:49:08.620Z,2.90
2023-02-08T22:51:43.553Z,2.90
2023-02-08T22:54:18.029Z,2.90
2023-02-08T22:56:52.333Z,2.80
2023-02-08T22:59:25.954Z,2.80
2023-02-08T23:02:00.427Z,2.80
2023-02-08T23:04:34.594Z,2.70
2023-02-08T23:07:09.930Z,2.70
2023-02-08T23:09:44.337Z,2.70
2023-02-08T23:12:18.355Z,2.70
2023-02-08T23:14:51.831Z,2.70
2023-02-08T23:17:25.319Z,2.70
2023-02-08T23:19:59.034Z,2.70
2023-02-08T23:22:37.808Z,2.70
2023-02-08T23:25:11.828Z,2.70
2023-02-08T23:27:45.920Z,2.80
2023-02-08T23:30:19.730Z,2.60
2023-02-08T23:32:53.632Z,2.60
2023-02-08T23:35:27.820Z,2.60
2023-02-08T23:38:02.836Z,2.60
2023-02-08T23:40:36.743Z,2.60
2023-02-08T23:43:10.561Z,2.50
2023-02-08T23:45:44.173Z,2.50
2023-02-08T23:48:19.141Z,2.50
2023-02-08T23:50:59.130Z,2.50
2023-02-08T23:53:35.683Z,2.50
2023-02-08T23:56:16.471Z,2.60
2023-02-08T23:58:53.283Z,2.60
